createdAt,value
2023-01-15T00:02:44.649Z,30.88
2023-01-15T00:06:47.533Z,31.85
2023-01-15T00:10:50.283Z,54.97
2023-01-15T00:14:53.757Z,47.42
2023-01-15T00:18:59.356Z,37.53
2023-01-15T00:23:02.241Z,40.20
2023-01-15T00:27:23.325Z,35.20
2023-01-15T00:31:26.411Z,47.42
2023-01-15T00:35:29.223Z,48.97
2023-01-15T00:39:32.057Z,43.63
2023-01-15T00:43:34.944Z,30.88
2023-01-15T00:47:39.849Z,27.95
2023-01-15T00:51:42.801Z,26.35
2023-01-15T00:55:45.625Z,30.48
2023-01-15T00:59:48.657Z,27.10
2023-01-15T01:03:53.123Z,25.63
2023-01-15T01:07:59.460Z,24.60
2023-01-15T01:12:04.070Z,27.35
2023-01-15T01:16:25.503Z,27.17
2023-01-15T01:20:29.105Z,32.50
2023-01-15T01:24:31.978Z,29.20
2023-01-15T01:28:35.094Z,32.22
2023-01-15T01:32:37.905Z,49.55
2023-01-15T01:36:42.578Z,38.33
2023-01-15T01:40:46.572Z,36.03
2023-01-15T01:44:52.475Z,39.65
2023-01-15T01:49:02.609Z,61.53
2023-01-15T01:53:16.988Z,47.10
2023-01-15T01:57:22.482Z,41.45
2023-01-15T02:01:26.731Z,50.33
2023-01-15T02:05:32.412Z,47.78
2023-01-15T02:09:35.175Z,96.72
2023-01-15T02:14:12.920Z,95.55
2023-01-15T02:18:34.999Z,76.93
2023-01-15T02:23:19.813Z,143.90
2023-01-15T02:27:24.933Z,43.50
2023-01-15T02:31:36.293Z,39.17
2023-01-15T02:35:46.795Z,37.47
2023-01-15T02:39:51.671Z,36.38
2023-01-15T02:43:57.073Z,34.10
2023-01-15T02:48:08.246Z,116.13
2023-01-15T02:52:27.950Z,48.58
2023-01-15T02:56:36.069Z,27.55
2023-01-15T03:00:42.885Z,31.13
2023-01-15T03:04:55.535Z,51.25
2023-01-15T03:08:58.931Z,29.05
2023-01-15T03:13:03.676Z,29.45
2023-01-15T03:17:28.572Z,63.00
2023-01-15T03:21:41.457Z,42.72
2023-01-15T03:25:49.516Z,31.88
2023-01-15T03:29:58.913Z,42.72
2023-01-15T03:34:02.588Z,31.30
2023-01-15T03:38:05.668Z,31.27
2023-01-15T03:42:35.604Z,31.40
2023-01-15T03:46:55.986Z,27.70
2023-01-15T03:51:17.178Z,27.60
2023-01-15T03:55:30.646Z,30.88
2023-01-15T03:59:55.684Z,29.02
2023-01-15T04:04:01.223Z,21.88
2023-01-15T04:08:06.758Z,24.88
2023-01-15T04:12:11.598Z,26.00
2023-01-15T04:16:26.355Z,30.60
2023-01-15T04:20:29.755Z,27.73
2023-01-15T04:24:33.238Z,26.08
2023-01-15T04:28:36.033Z,33.85
2023-01-15T04:32:38.929Z,31.75
2023-01-15T04:36:42.786Z,32.80
2023-01-15T04:41:04.093Z,31.98
2023-01-15T04:45:07.440Z,35.55
2023-01-15T04:49:13.469Z,37.85
2023-01-15T04:53:16.267Z,50.30
2023-01-15T04:57:19.053Z,68.00
2023-01-15T05:01:21.991Z,40.53
2023-01-15T05:05:25.079Z,50.15
2023-01-15T05:09:28.258Z,39.78
2023-01-15T05:13:33.359Z,33.83
2023-01-15T05:17:36.425Z,42.08
2023-01-15T05:21:42.741Z,49.20
2023-01-15T05:25:45.587Z,37.63
2023-01-15T05:29:48.474Z,48.67
2023-01-15T05:33:52.459Z,75.57
2023-01-15T05:37:55.384Z,47.88
2023-01-15T05:41:58.403Z,81.47
2023-01-15T05:46:08.202Z,145.85
2023-01-15T05:50:11.338Z,71.72
2023-01-15T05:54:26.513Z,101.80
2023-01-15T05:58:29.420Z,118.45
2023-01-15T06:02:32.212Z,111.15
2023-01-15T06:06:35.882Z,107.03
2023-01-15T06:10:38.748Z,43.50
2023-01-15T06:14:41.628Z,87.82
2023-01-15T06:18:44.601Z,203.85
2023-01-15T06:22:49.423Z,94.10
2023-01-15T06:26:54.393Z,113.68
2023-01-15T06:30:57.187Z,67.07
2023-01-15T06:34:59.951Z,59.10
2023-01-15T06:39:05.370Z,52.90
2023-01-15T06:43:29.297Z,54.88
2023-01-15T06:47:32.007Z,42.42
2023-01-15T06:51:34.776Z,50.10
2023-01-15T06:55:37.572Z,49.30
2023-01-15T06:59:40.281Z,44.47
2023-01-15T07:03:43.246Z,34.50
2023-01-15T07:07:46.107Z,37.22
2023-01-15T07:11:51.757Z,36.50
2023-01-15T07:15:54.716Z,39.67
2023-01-15T07:19:57.653Z,40.33
2023-01-15T07:24:01.136Z,34.53
2023-01-15T07:28:04.217Z,32.65
2023-01-15T07:32:07.056Z,37.40
2023-01-15T07:36:10.566Z,33.28
2023-01-15T07:40:13.382Z,41.22
2023-01-15T07:44:35.106Z,44.08
2023-01-15T07:48:56.655Z,37.80
2023-01-15T07:52:59.444Z,36.42
2023-01-15T07:57:02.758Z,34.70
2023-01-15T08:01:05.858Z,33.25
2023-01-15T08:05:11.723Z,32.13
2023-01-15T08:09:14.759Z,37.03
2023-01-15T08:13:36.167Z,33.28
2023-01-15T08:17:41.544Z,33.78
2023-01-15T08:22:04.664Z,40.40
2023-01-15T08:26:07.442Z,43.63
2023-01-15T08:30:14.269Z,39.50
2023-01-15T08:34:19.235Z,35.28
2023-01-15T08:38:21.967Z,34.28
2023-01-15T08:42:24.680Z,37.20
2023-01-15T08:46:27.683Z,31.88
2023-01-15T08:50:30.494Z,27.92
2023-01-15T08:54:33.497Z,30.55
2023-01-15T08:58:36.282Z,27.33
2023-01-15T09:02:38.989Z,30.70
2023-01-15T09:06:43.125Z,29.40
2023-01-15T09:10:45.866Z,34.03
2023-01-15T09:15:02.933Z,31.20
2023-01-15T09:19:07.871Z,32.38
2023-01-15T09:23:10.703Z,32.50
2023-01-15T09:27:15.020Z,30.88
2023-01-15T09:31:17.861Z,29.10
2023-01-15T09:35:22.511Z,32.60
2023-01-15T09:39:25.291Z,29.35
2023-01-15T09:43:38.833Z,29.95
2023-01-15T09:48:03.559Z,28.42
2023-01-15T09:52:33.194Z,25.75
2023-01-15T09:56:37.866Z,26.05
2023-01-15T10:00:47.870Z,27.48
2023-01-15T10:05:17.399Z,26.50
2023-01-15T10:09:31.784Z,28.15
2023-01-15T10:14:06.830Z,25.58
2023-01-15T10:18:26.241Z,26.48
2023-01-15T10:22:58.782Z,28.30
2023-01-15T10:27:19.424Z,23.73
2023-01-15T10:31:26.239Z,22.83
2023-01-15T10:35:49.878Z,32.88
2023-01-15T10:40:17.245Z,20.92
2023-01-15T10:45:06.291Z,19.35
2023-01-15T10:49:17.892Z,20.95
2023-01-15T10:53:45.498Z,21.65
2023-01-15T10:58:10.576Z,22.17
2023-01-15T11:02:22.642Z,22.23
2023-01-15T11:06:28.231Z,20.80
2023-01-15T11:10:32.403Z,21.55
2023-01-15T11:15:03.110Z,17.80
2023-01-15T11:19:37.188Z,21.92
2023-01-15T11:23:40.192Z,18.92
2023-01-15T11:27:43.014Z,19.33
2023-01-15T11:31:45.764Z,18.67
2023-01-15T11:35:58.334Z,12.05
2023-01-15T11:40:09.417Z,14.10
2023-01-15T11:44:31.497Z,8.05
2023-01-15T11:49:05.760Z,9.43
2023-01-15T11:53:18.830Z,11.43
2023-01-15T11:57:31.360Z,8.35
2023-01-15T12:01:37.382Z,10.05
2023-01-15T12:06:06.358Z,11.60
2023-01-15T12:10:40.859Z,11.40
2023-01-15T12:15:09.090Z,11.82
2023-01-15T12:19:40.802Z,11.32
2023-01-15T12:23:56.838Z,13.50
2023-01-15T12:28:02.764Z,29.23
2023-01-15T12:32:16.133Z,11.03
2023-01-15T12:36:49.277Z,13.98
2023-01-15T12:41:02.404Z,9.35
2023-01-15T12:45:30.836Z,5.55
2023-01-15T12:49:37.898Z,5.75
2023-01-15T12:53:43.443Z,5.50
2023-01-15T12:57:53.428Z,5.53
2023-01-15T13:02:11.827Z,8.20
2023-01-15T13:06:16.932Z,8.32
2023-01-15T13:10:28.319Z,9.90
2023-01-15T13:14:31.278Z,6.38
2023-01-15T13:18:48.189Z,9.18
2023-01-15T13:23:09.304Z,8.75
2023-01-15T13:27:24.309Z,9.98
2023-01-15T13:31:58.658Z,8.90
2023-01-15T13:36:27.294Z,10.60
2023-01-15T13:40:36.401Z,7.90
2023-01-15T13:44:45.675Z,8.15
2023-01-15T13:48:50.878Z,7.60
2023-01-15T13:53:06.658Z,6.50
2023-01-15T13:57:36.691Z,7.23
2023-01-15T14:02:11.699Z,8.85
2023-01-15T14:06:09.725Z,6.15
2023-01-15T14:10:19.691Z,8.15
2023-01-15T14:14:37.914Z,9.40
2023-01-15T14:18:50.304Z,6.55
2023-01-15T14:23:37.691Z,10.35
2023-01-15T14:27:56.730Z,9.40
2023-01-15T14:32:22.438Z,14.80
2023-01-15T14:36:31.917Z,8.10
2023-01-15T14:40:36.697Z,9.43
2023-01-15T14:44:43.209Z,5.57
2023-01-15T14:48:46.066Z,8.43
2023-01-15T14:52:50.778Z,7.78
2023-01-15T14:56:59.795Z,8.35
2023-01-15T15:01:41.735Z,9.98
2023-01-15T15:05:46.111Z,7.68
2023-01-15T15:10:10.801Z,9.82
2023-01-15T15:14:16.192Z,10.35
2023-01-15T15:18:32.565Z,9.50
2023-01-15T15:22:38.756Z,9.73
2023-01-15T15:26:42.002Z,9.93
2023-01-15T15:30:46.692Z,10.93
2023-01-15T15:34:53.026Z,7.32
2023-01-15T15:39:04.646Z,10.33
2023-01-15T15:43:50.845Z,10.02
2023-01-15T15:52:23.161Z,13.75
2023-01-15T15:56:26.601Z,12.63
2023-01-15T16:00:36.074Z,8.50
2023-01-15T16:04:47.401Z,9.27
2023-01-15T16:09:04.748Z,11.18
2023-01-15T16:13:16.789Z,11.82
2023-01-15T16:17:43.640Z,9.55
2023-01-15T16:21:47.006Z,11.35
2023-01-15T16:26:08.103Z,15.85
2023-01-15T16:30:14.970Z,11.32
2023-01-15T16:34:21.478Z,16.63
2023-01-15T16:38:26.107Z,15.75
2023-01-15T16:42:40.268Z,12.30
2023-01-15T16:47:21.565Z,12.15
2023-01-15T16:51:24.907Z,7.30
2023-01-15T16:55:45.906Z,8.57
2023-01-15T17:00:00.986Z,22.92
2023-01-15T17:04:04.827Z,16.73
2023-01-15T17:08:17.993Z,16.42
2023-01-15T17:12:39.531Z,13.48
2023-01-15T17:16:42.410Z,13.07
2023-01-15T17:20:46.149Z,18.30
2023-01-15T17:24:50.522Z,9.23
2023-01-15T17:28:53.608Z,8.32
2023-01-15T17:32:59.791Z,7.53
2023-01-15T17:37:02.691Z,6.40
2023-01-15T17:41:08.427Z,5.15
2023-01-15T17:45:20.072Z,4.65
2023-01-15T17:49:22.789Z,5.57
2023-01-15T17:53:28.518Z,3.97
2023-01-15T17:58:10.124Z,9.00
2023-01-15T18:02:34.738Z,6.93
2023-01-15T18:06:38.266Z,6.32
2023-01-15T18:10:41.250Z,5.05
2023-01-15T18:14:44.725Z,4.88
2023-01-15T18:18:47.692Z,5.15
2023-01-15T18:22:50.544Z,3.15
2023-01-15T18:26:53.700Z,6.82
2023-01-15T18:30:56.423Z,8.00
2023-01-15T18:34:59.275Z,8.00
2023-01-15T18:39:06.387Z,6.65
2023-01-15T18:43:28.321Z,4.70
2023-01-15T18:47:31.322Z,7.80
2023-01-15T18:51:34.112Z,4.60
2023-01-15T18:55:36.962Z,6.07
2023-01-15T18:59:52.753Z,6.18
2023-01-15T19:03:58.697Z,9.00
2023-01-15T19:08:01.705Z,4.43
2023-01-15T19:12:06.331Z,6.70
2023-01-15T19:16:28.416Z,6.38
2023-01-15T19:20:31.244Z,5.97
2023-01-15T19:24:35.334Z,8.30
2023-01-15T19:28:38.126Z,3.97
2023-01-15T19:33:05.031Z,9.37
2023-01-15T19:37:08.296Z,7.53
2023-01-15T19:41:32.909Z,8.88
2023-01-15T19:45:58.184Z,4.55
2023-01-15T19:50:19.617Z,7.40
2023-01-15T19:54:42.332Z,4.55
2023-01-15T19:58:45.124Z,8.02
2023-01-15T20:02:48.195Z,4.75
2023-01-15T20:06:53.863Z,4.68
2023-01-15T20:10:56.694Z,5.22
2023-01-15T20:15:00.069Z,12.50
2023-01-15T20:19:02.798Z,13.88
2023-01-15T20:23:06.284Z,7.35
2023-01-15T20:27:13.982Z,4.68
2023-01-15T20:31:18.417Z,5.68
2023-01-15T20:35:24.731Z,3.72
2023-01-15T20:39:27.550Z,3.28
2023-01-15T20:43:48.705Z,7.65
2023-01-15T20:48:09.946Z,5.38
2023-01-15T20:52:12.784Z,4.85
2023-01-15T20:56:16.774Z,4.30
2023-01-15T21:00:23.083Z,5.70
2023-01-15T21:04:26.046Z,8.80
2023-01-15T21:08:29.532Z,4.53
2023-01-15T21:12:33.253Z,3.85
2023-01-15T21:16:36.109Z,4.55
2023-01-15T21:20:39.455Z,4.15
2023-01-15T21:24:42.342Z,3.25
2023-01-15T21:28:45.112Z,4.15
2023-01-15T21:32:48.808Z,3.08
2023-01-15T21:36:51.609Z,6.45
2023-01-15T21:40:54.284Z,8.07
2023-01-15T21:44:57.379Z,5.10
2023-01-15T21:49:00.153Z,11.05
2023-01-15T21:53:02.980Z,7.03
2023-01-15T21:57:06.578Z,4.85
2023-01-15T22:01:15.781Z,7.97
2023-01-15T22:05:23.848Z,2.55
2023-01-15T22:09:26.811Z,5.80
2023-01-15T22:13:29.613Z,3.85
2023-01-15T22:17:32.371Z,4.22
2023-01-15T22:21:35.456Z,7.55
2023-01-15T22:25:43.110Z,8.07
2023-01-15T22:29:45.953Z,6.10
2023-01-15T22:33:48.929Z,4.07
2023-01-15T22:37:51.679Z,6.43
2023-01-15T22:42:13.094Z,7.10
2023-01-15T22:46:16.318Z,3.78
2023-01-15T22:50:19.449Z,6.60
2023-01-15T22:54:22.474Z,6.00
2023-01-15T22:58:25.798Z,5.47
2023-01-15T23:02:47.305Z,6.78
2023-01-15T23:06:51.928Z,8.23
2023-01-15T23:10:54.939Z,3.30
2023-01-15T23:14:58.615Z,4.85
2023-01-15T23:19:01.997Z,7.43
2023-01-15T23:23:04.702Z,4.82
2023-01-15T23:27:07.405Z,5.03
2023-01-15T23:31:11.001Z,4.57
2023-01-15T23:35:13.830Z,4.30
2023-01-15T23:39:16.811Z,4.10
2023-01-15T23:43:38.129Z,6.80
2023-01-15T23:47:40.878Z,3.83
2023-01-15T23:51:43.789Z,5.18
2023-01-15T23:56:12.945Z,8.20
